Time;durP1;ratioP1;P1;durP2;ratioP2;P2;SDS_P1;SDS_P2;PMS_P1;PMS_P2;Temp;Humidity;BMP_temperature;BMP_pressure;BME280_temperature;BME280_humidity;BME280_pressure;Samples;Min_cycle;Max_cycle;Signal;HPM_P1;HPM_P2
2022/09/05 00:02:02;;;;;;;1999.90;999.90;;;20.90;99.90;;;;;;5032023;28;20420;-66
2022/09/05 00:04:55;;;;;;;1999.90;999.90;;;20.90;99.90;;;;;;5031757;28;20398;-66
2022/09/05 00:07:37;;;;;;;1999.90;999.90;;;20.90;99.90;;;;;;5031495;28;20235;-66
2022/09/05 00:10:14;;;;;;;1999.90;999.90;;;20.80;99.90;;;;;;5031978;28;20412;-66
2022/09/05 00:12:41;;;;;;;1999.90;999.90;;;20.80;99.90;;;;;;5032124;28;20426;-66
2022/09/05 00:15:26;;;;;;;1999.90;999.90;;;20.70;99.90;;;;;;5035976;28;20416;-66
2022/09/05 00:18:00;;;;;;;1999.90;999.90;;;20.70;99.90;;;;;;5035460;28;20396;-66
2022/09/05 00:20:46;;;;;;;1999.90;999.90;;;20.70;99.90;;;;;;5035676;28;20439;-66
2022/09/05 00:23:16;;;;;;;1999.90;999.90;;;20.60;99.90;;;;;;5035647;28;20406;-66
2022/09/05 00:26:17;;;;;;;1999.90;999.90;;;20.60;99.90;;;;;;5035657;28;20386;-66
2022/09/05 00:29:03;;;;;;;1999.90;999.90;;;20.60;99.90;;;;;;5035617;28;20376;-66
2022/09/05 00:31:54;;;;;;;1999.90;999.90;;;20.50;99.90;;;;;;5036126;28;20419;-66
2022/09/05 00:34:33;;;;;;;1999.90;999.90;;;20.40;99.90;;;;;;5035508;28;20442;-66
2022/09/05 00:36:59;;;;;;;1999.90;999.90;;;20.40;99.90;;;;;;5035953;28;20469;-66
2022/09/05 00:39:34;;;;;;;1999.90;999.90;;;20.30;99.90;;;;;;5037437;28;20463;-66
2022/09/05 00:42:16;;;;;;;1999.90;999.90;;;20.20;99.90;;;;;;5036523;28;20207;-65
2022/09/05 00:44:56;;;;;;;1999.90;999.90;;;20.10;99.90;;;;;;5036976;28;20496;-66
2022/09/05 00:47:45;;;;;;;1999.90;999.90;;;20.00;99.90;;;;;;5037211;28;20899;-65
2022/09/05 00:50:31;;;;;;;1999.90;999.90;;;20.00;99.90;;;;;;5036692;28;20420;-66
2022/09/05 00:53:12;;;;;;;1999.90;999.90;;;19.90;99.90;;;;;;5037654;28;20972;-66
2022/09/05 00:56:02;;;;;;;1999.90;999.90;;;19.90;99.90;;;;;;5037528;28;20403;-66
2022/09/05 00:59:04;;;;;;;1999.90;999.90;;;19.80;99.90;;;;;;5037833;28;20920;-67
2022/09/05 01:01:41;;;;;;;1999.90;999.90;;;19.70;99.90;;;;;;5037845;28;20509;-66
2022/09/05 01:04:33;;;;;;;1999.90;999.90;;;19.60;99.90;;;;;;5037774;28;20406;-66
2022/09/05 01:07:08;;;;;;;1999.90;999.90;;;19.50;99.90;;;;;;5037522;28;20461;-66
2022/09/05 01:10:03;;;;;;;1999.90;999.90;;;19.50;99.90;;;;;;5037049;28;20397;-66
2022/09/05 01:12:40;;;;;;;1999.90;999.90;;;19.40;99.90;;;;;;5036298;28;20455;-66
2022/09/05 01:15:31;;;;;;;1999.90;999.90;;;19.50;99.90;;;;;;5035614;28;20414;-66
2022/09/05 01:18:12;;;;;;;1999.90;999.90;;;19.40;99.90;;;;;;5035425;28;20407;-66
2022/09/05 01:21:10;;;;;;;1999.90;999.90;;;19.40;99.90;;;;;;5035438;28;20423;-66
2022/09/05 01:24:01;;;;;;;1999.90;999.90;;;19.40;99.90;;;;;;5004794;28;20382;-66
2022/09/05 01:26:58;;;;;;;1999.90;999.90;;;19.30;99.90;;;;;;5034244;28;20485;-66
2022/09/05 01:29:39;;;;;;;1999.90;999.90;;;19.30;99.90;;;;;;5035539;28;20456;-66
2022/09/05 01:32:14;;;;;;;1999.90;999.90;;;19.20;99.90;;;;;;5035574;28;20446;-65
2022/09/05 01:34:59;;;;;;;1999.90;999.90;;;19.20;99.90;;;;;;5066916;22;20482;-71
2022/09/05 01:37:38;;;;;;;1999.90;999.90;;;19.10;99.90;;;;;;5014796;28;20482;-71
2022/09/05 01:40:22;;;;;;;1999.90;999.90;;;19.10;99.90;;;;;;5015460;28;20821;-71
2022/09/05 01:42:55;;;;;;;1999.90;999.90;;;19.10;99.90;;;;;;5014980;28;20411;-71
2022/09/05 01:45:27;;;;;;;1999.90;999.90;;;19.00;99.90;;;;;;5014407;28;20423;-71
2022/09/05 01:48:04;;;;;;;1999.90;999.90;;;19.00;99.90;;;;;;5014603;28;20404;-71
2022/09/05 01:50:47;;;;;;;1999.90;999.90;;;19.00;99.90;;;;;;5014842;28;20758;-71
2022/09/05 01:53:26;;;;;;;1999.90;999.90;;;19.00;99.90;;;;;;5015188;28;20824;-71
2022/09/05 01:56:10;;;;;;;1999.90;999.90;;;18.90;99.90;;;;;;5014875;28;20476;-71
2022/09/05 01:58:39;;;;;;;1999.90;999.90;;;18.80;99.90;;;;;;5014901;28;20502;-71
2022/09/05 02:01:17;;;;;;;1999.90;999.90;;;18.80;99.90;;;;;;5014604;28;20377;-71
2022/09/05 02:04:06;;;;;;;1999.90;999.90;;;18.80;99.90;;;;;;5014595;28;20408;-71
2022/09/05 02:06:46;;;;;;;1999.90;999.90;;;18.80;99.90;;;;;;5014101;28;20412;-71
2022/09/05 02:09:32;;;;;;;1999.90;999.90;;;18.80;99.90;;;;;;5014834;28;20424;-71
2022/09/05 02:12:05;;;;;;;1999.90;999.90;;;18.70;99.90;;;;;;5014361;28;20462;-71
2022/09/05 02:14:31;;;;;;;1999.90;999.90;;;18.60;99.90;;;;;;5014546;28;20957;-71
2022/09/05 02:17:27;;;;;;;1999.90;999.90;;;18.60;99.90;;;;;;5014248;28;20408;-71
2022/09/05 02:20:12;;;;;;;1999.90;999.90;;;18.60;99.90;;;;;;4973969;28;20187;-71
2022/09/05 02:22:55;;;;;;;1999.90;999.90;;;18.60;99.90;;;;;;5014440;28;20411;-71
2022/09/05 02:25:29;;;;;;;1999.90;999.90;;;18.50;99.90;;;;;;5014180;28;20526;-71
2022/09/05 02:28:14;;;;;;;1999.90;999.90;;;18.50;99.90;;;;;;5013958;28;20783;-71
2022/09/05 02:30:47;;;;;;;1999.90;999.90;;;18.50;99.90;;;;;;5014151;28;20426;-71
2022/09/05 02:33:21;;;;;;;1999.90;999.90;;;18.50;99.90;;;;;;5013951;28;20426;-72
2022/09/05 02:36:21;;;;;;;1999.90;999.90;;;18.50;99.90;;;;;;5013494;28;20446;-71
2022/09/05 02:38:53;;;;;;;1999.90;999.90;;;18.50;99.90;;;;;;5014192;28;20977;-71
2022/09/05 02:41:39;;;;;;;1999.90;999.90;;;18.40;99.90;;;;;;5014224;28;20400;-71
2022/09/05 02:44:27;;;;;;;1999.90;999.90;;;18.40;99.90;;;;;;5013921;28;20432;-71
2022/09/05 02:47:06;;;;;;;1999.90;999.90;;;18.40;99.90;;;;;;5013308;28;20385;-71
2022/09/05 02:49:47;;;;;;;1999.90;999.90;;;18.50;99.90;;;;;;5013814;28;20502;-71
2022/09/05 02:52:18;;;;;;;1999.90;999.90;;;18.40;99.90;;;;;;5013686;28;20457;-71
2022/09/05 02:54:47;;;;;;;1999.90;999.90;;;18.40;99.90;;;;;;5013013;28;20423;-71
2022/09/05 02:57:37;;;;;;;1999.90;999.90;;;18.30;99.90;;;;;;5013030;28;20402;-71
2022/09/05 03:00:15;;;;;;;1999.90;999.90;;;18.30;99.90;;;;;;5013602;28;21267;-71
2022/09/05 03:03:25;;;;;;;1999.90;999.90;;;18.40;99.90;;;;;;5013579;28;20400;-71
2022/09/05 03:06:08;;;;;;;1999.90;999.90;;;18.30;99.90;;;;;;5013035;28;20519;-71
2022/09/05 03:08:40;;;;;;;1999.90;999.90;;;18.30;99.90;;;;;;5013414;28;20400;-71
2022/09/05 03:11:43;;;;;;;1999.90;999.90;;;18.20;99.90;;;;;;5013516;28;20402;-71
2022/09/05 03:14:37;;;;;;;1999.90;999.90;;;18.20;99.90;;;;;;5012967;28;20443;-71
2022/09/05 03:17:32;;;;;;;1999.90;999.90;;;18.10;99.90;;;;;;5011426;28;20478;-71
2022/09/05 03:20:04;;;;;;;1999.90;999.90;;;18.00;99.90;;;;;;5012923;28;20450;-71
2022/09/05 03:22:51;;;;;;;1999.90;999.90;;;18.10;99.90;;;;;;5012995;28;20925;-71
2022/09/05 03:25:38;;;;;;;1999.90;999.90;;;18.10;99.90;;;;;;5013034;28;20498;-71
2022/09/05 03:28:31;;;;;;;1999.90;999.90;;;18.10;99.90;;;;;;5012772;28;20456;-71
2022/09/05 03:31:05;;;;;;;1999.90;999.90;;;18.00;99.90;;;;;;5013174;28;20891;-71
2022/09/05 03:34:24;;;;;;;1999.90;999.90;;;18.00;99.90;;;;;;5012868;28;20797;-71
2022/09/05 03:37:07;;;;;;;1999.90;999.90;;;17.90;99.90;;;;;;4933391;29;20568;-71
2022/09/05 03:40:03;;;;;;;1999.90;999.90;;;17.90;99.90;;;;;;5013074;28;20432;-71
2022/09/05 03:42:59;;;;;;;1999.90;999.90;;;17.90;99.90;;;;;;5013191;28;20395;-71
2022/09/05 03:46:12;;;;;;;1999.90;999.90;;;17.80;99.90;;;;;;5012913;28;20471;-71
2022/09/05 03:48:55;;;;;;;1999.90;999.90;;;17.80;99.90;;;;;;4968730;28;20417;-71
2022/09/05 03:51:54;;;;;;;1999.90;999.90;;;17.80;99.90;;;;;;5012681;28;20901;-71
2022/09/05 03:54:59;;;;;;;1999.90;999.90;;;17.70;99.90;;;;;;5012827;28;20444;-71
2022/09/05 03:57:35;;;;;;;1999.90;999.90;;;17.70;99.90;;;;;;5011768;28;20496;-71
2022/09/05 04:00:09;;;;;;;1999.90;999.90;;;17.70;99.90;;;;;;5012738;28;20496;-71
2022/09/05 04:02:48;;;;;;;1999.90;999.90;;;17.70;99.90;;;;;;5012680;28;20399;-71
2022/09/05 04:05:22;;;;;;;1999.90;999.90;;;17.60;99.90;;;;;;5012490;28;20773;-71
2022/09/05 04:08:10;;;;;;;1999.90;999.90;;;17.60;99.90;;;;;;5012263;28;20847;-71
2022/09/05 04:10:50;;;;;;;1999.90;999.90;;;17.60;99.90;;;;;;5012344;28;20407;-71
2022/09/05 04:13:31;;;;;;;1999.90;999.90;;;17.60;99.90;;;;;;5012479;28;20967;-71
2022/09/05 04:16:17;;;;;;;1999.90;999.90;;;17.30;99.90;;;;;;5012559;28;20407;-71
2022/09/05 04:19:04;;;;;;;1999.90;999.90;;;17.20;99.90;;;;;;5012682;28;20470;-72
2022/09/05 04:21:34;;;;;;;1999.90;999.90;;;17.10;99.90;;;;;;5012545;28;20767;-71
2022/09/05 04:24:38;;;;;;;1999.90;999.90;;;17.00;99.90;;;;;;5012491;28;20412;-71
2022/09/05 04:27:19;;;;;;;1999.90;999.90;;;16.90;99.90;;;;;;5012114;28;20400;-71
2022/09/05 04:29:58;;;;;;;1999.90;999.90;;;16.90;99.90;;;;;;5012350;28;20791;-71
2022/09/05 04:32:54;;;;;;;1999.90;999.90;;;16.90;99.90;;;;;;5012031;28;20442;-71
2022/09/05 04:35:32;;;;;;;1999.90;999.90;;;17.00;99.90;;;;;;5011914;28;20454;-71
2022/09/05 04:38:12;;;;;;;1999.90;999.90;;;17.00;99.90;;;;;;5011900;28;20938;-71
2022/09/05 04:40:52;;;;;;;1999.90;999.90;;;17.00;99.90;;;;;;5012119;28;20402;-71
2022/09/05 04:43:26;;;;;;;1999.90;999.90;;;17.10;99.90;;;;;;5012339;28;20400;-71
2022/09/05 04:45:59;;;;;;;1999.90;999.90;;;17.10;99.90;;;;;;5012211;28;20518;-71
2022/09/05 04:48:33;;;;;;;1999.90;999.90;;;17.10;99.90;;;;;;5012197;28;20407;-71
2022/09/05 04:51:03;;;;;;;1999.90;999.90;;;17.20;99.90;;;;;;5012007;28;20438;-71
2022/09/05 04:53:42;;;;;;;1999.90;999.90;;;17.20;99.90;;;;;;5012177;28;20455;-72
2022/09/05 04:56:23;;;;;;;1999.90;999.90;;;17.20;99.90;;;;;;5011949;28;20391;-71
2022/09/05 04:59:01;;;;;;;1999.90;999.90;;;17.20;99.90;;;;;;5012079;28;20398;-71
2022/09/05 05:01:37;;;;;;;1999.90;999.90;;;17.20;99.90;;;;;;5014875;28;20411;-71
2022/09/05 05:04:09;;;;;;;1999.90;999.90;;;17.10;99.90;;;;;;5015409;28;20490;-71
2022/09/05 05:06:39;;;;;;;1999.90;999.90;;;17.10;99.90;;;;;;5014970;28;20779;-71
2022/09/05 05:09:19;;;;;;;1999.90;999.90;;;17.00;99.90;;;;;;5015822;28;20395;-71
2022/09/05 05:12:00;;;;;;;1999.90;999.90;;;17.00;99.90;;;;;;5015302;28;20450;-71
2022/09/05 05:14:47;;;;;;;1999.90;999.90;;;17.00;99.90;;;;;;5015151;28;20459;-71
2022/09/05 05:17:25;;;;;;;1999.90;999.90;;;17.00;99.90;;;;;;5014878;28;20398;-71
2022/09/05 05:20:12;;;;;;;1999.90;999.90;;;17.00;99.90;;;;;;5015070;28;20487;-71
2022/09/05 05:22:51;;;;;;;1999.90;999.90;;;17.00;99.90;;;;;;5014976;28;20433;-71
2022/09/05 05:25:17;;;;;;;1999.90;999.90;;;17.00;99.90;;;;;;5014675;28;20504;-71
2022/09/05 05:27:45;;;;;;;1999.90;999.90;;;17.00;99.90;;;;;;5014528;28;20502;-71
2022/09/05 05:30:21;;;;;;;1999.90;999.90;;;16.90;99.90;;;;;;5014915;28;20170;-71
2022/09/05 05:32:51;;;;;;;1999.90;999.90;;;16.90;99.90;;;;;;5014657;28;20459;-71
2022/09/05 05:35:35;;;;;;;1999.90;999.90;;;16.90;99.90;;;;;;5014503;28;20449;-71
2022/09/05 05:38:17;;;;;;;1999.90;999.90;;;16.90;99.90;;;;;;5014182;28;20786;-71
2022/09/05 05:41:15;;;;;;;1999.90;999.90;;;17.10;99.90;;;;;;5014425;28;20451;-71
2022/09/05 05:43:43;;;;;;;1999.90;999.90;;;17.20;99.90;;;;;;4987368;28;20774;-71
2022/09/05 05:46:14;;;;;;;1999.90;999.90;;;17.20;99.90;;;;;;5013802;28;20890;-71
2022/09/05 05:48:41;;;;;;;1999.90;999.90;;;17.40;99.90;;;;;;5014376;28;20415;-71
2022/09/05 05:51:12;;;;;;;1999.90;999.90;;;17.50;99.90;;;;;;5014086;28;20415;-71
2022/09/05 05:54:05;;;;;;;1999.90;999.90;;;17.60;99.90;;;;;;5013986;28;20450;-71
2022/09/05 05:56:56;;;;;;;1999.90;999.90;;;17.70;99.90;;;;;;5013739;28;20396;-70
2022/09/05 05:59:43;;;;;;;1999.90;999.90;;;17.80;99.90;;;;;;5013971;28;20500;-71
2022/09/05 06:02:36;;;;;;;1999.90;999.90;;;17.80;99.90;;;;;;5013992;28;20543;-71
2022/09/05 06:05:20;;;;;;;1999.90;999.90;;;18.00;99.90;;;;;;5013732;28;20428;-71
2022/09/05 06:07:58;;;;;;;1999.90;999.90;;;18.10;99.90;;;;;;5013560;28;20899;-71
2022/09/05 06:10:32;;;;;;;1999.90;999.90;;;18.20;99.90;;;;;;5013477;28;21102;-71
2022/09/05 06:13:45;;;;;;;1999.90;999.90;;;18.30;99.90;;;;;;5013578;28;20477;-71
2022/09/05 06:16:46;;;;;;;1999.90;999.90;;;18.40;99.90;;;;;;4969565;28;20477;-71
2022/09/05 06:19:53;;;;;;;1999.90;999.90;;;18.50;99.90;;;;;;5013650;28;20816;-71
2022/09/05 06:22:41;;;;;;;1999.90;999.90;;;18.60;99.90;;;;;;4933781;29;20477;-71
2022/09/05 06:25:32;;;;;;;1999.90;999.90;;;18.80;99.90;;;;;;5009160;28;20817;-71
2022/09/05 06:28:20;;;;;;;1999.90;999.90;;;18.90;99.90;;;;;;5013089;28;20410;-71
2022/09/05 06:31:07;;;;;;;1999.90;999.90;;;19.00;99.90;;;;;;5013255;28;20402;-71
2022/09/05 06:33:48;;;;;;;1999.90;999.90;;;19.10;99.90;;;;;;5013119;28;20489;-71
2022/09/05 06:36:51;;;;;;;1999.90;999.90;;;19.00;99.90;;;;;;5012908;28;20905;-71
2022/09/05 06:39:31;;;;;;;1999.90;999.90;;;19.00;99.90;;;;;;5013234;28;20406;-71
2022/09/05 06:42:27;;;;;;;1999.90;999.90;;;19.20;99.90;;;;;;5013207;28;20407;-71
2022/09/05 06:45:04;;;;;;;1999.90;999.90;;;19.20;99.90;;;;;;5013051;28;20525;-71
2022/09/05 06:47:34;;;;;;;1999.90;999.90;;;19.20;99.90;;;;;;5012798;28;20484;-70
2022/09/05 06:50:10;;;;;;;1999.90;999.90;;;19.30;99.90;;;;;;5013398;28;20928;-71
2022/09/05 06:53:00;;;;;;;1999.90;999.90;;;19.40;99.90;;;;;;5013517;28;20820;-71
2022/09/05 06:55:43;;;;;;;1999.90;999.90;;;19.50;99.90;;;;;;5013432;28;20479;-71
2022/09/05 06:58:18;;;;;;;1999.90;999.90;;;19.60;99.90;;;;;;5013216;28;20407;-71
2022/09/05 07:00:48;;;;;;;1999.90;999.90;;;19.70;99.90;;;;;;5013161;28;20442;-71
2022/09/05 07:03:22;;;;;;;1999.90;999.90;;;19.90;99.90;;;;;;5013056;28;20404;-71
2022/09/05 07:06:20;;;;;;;1999.90;999.90;;;20.10;99.90;;;;;;5012893;28;20483;-71
2022/09/05 07:08:52;;;;;;;1999.90;999.90;;;20.20;99.90;;;;;;4942518;28;20514;-71
2022/09/05 07:11:35;;;;;;;1999.90;999.90;;;20.40;99.90;;;;;;5012930;28;20768;-71
2022/09/05 07:14:08;;;;;;;1999.90;999.90;;;20.40;99.90;;;;;;5012966;28;20428;-71
2022/09/05 07:16:40;;;;;;;1999.90;999.90;;;20.60;99.90;;;;;;5012636;28;20772;-71
2022/09/05 07:19:14;;;;;;;1999.90;999.90;;;20.70;99.90;;;;;;5012855;28;20396;-71
2022/09/05 07:22:21;;;;;;;1999.90;999.90;;;20.80;99.90;;;;;;5012955;28;20891;-71
2022/09/05 07:24:49;;;;;;;1999.90;999.90;;;20.90;99.90;;;;;;5012384;28;20412;-71
2022/09/05 07:27:42;;;;;;;1999.90;999.90;;;21.00;99.90;;;;;;5012311;28;20404;-71
2022/09/05 07:30:09;;;;;;;1999.90;999.90;;;21.20;99.90;;;;;;5012513;28;20400;-71
2022/09/05 07:32:43;;;;;;;1999.90;999.90;;;21.30;99.90;;;;;;5012600;28;20476;-71
2022/09/05 07:35:34;;;;;;;1999.90;999.90;;;21.40;99.90;;;;;;5037181;22;20496;-66
2022/09/05 07:38:13;;;;;;;1999.90;999.90;;;21.60;99.90;;;;;;5031219;28;20520;-66
2022/09/05 07:40:49;;;;;;;1999.90;999.90;;;21.60;99.90;;;;;;5033423;28;20427;-66
2022/09/05 07:43:25;;;;;;;1999.90;999.90;;;21.80;99.90;;;;;;5032595;28;20410;-65
2022/09/05 07:46:10;;;;;;;1999.90;999.90;;;21.90;99.90;;;;;;5032614;28;20422;-66
2022/09/05 07:48:54;;;;;;;1999.90;999.90;;;22.00;99.90;;;;;;5032853;28;20391;-66
2022/09/05 07:51:29;;;;;;;1999.90;999.90;;;22.10;99.90;;;;;;5032205;28;20372;-65
2022/09/05 07:54:04;;;;;;;1999.90;999.90;;;22.30;99.90;;;;;;5032175;28;20848;-66
2022/09/05 07:57:04;;;;;;;1999.90;999.90;;;22.40;99.90;;;;;;5033210;28;20473;-66
2022/09/05 07:59:36;;;;;;;1999.90;999.90;;;22.60;99.90;;;;;;4991349;28;20380;-65
2022/09/05 08:02:04;;;;;;;1999.90;999.90;;;22.60;99.90;;;;;;5034080;28;20377;-66
2022/09/05 08:04:32;;;;;;;1999.90;999.90;;;22.70;99.90;;;;;;5032922;28;20416;-66
2022/09/05 08:07:01;;;;;;;1999.90;999.90;;;22.80;99.90;;;;;;5031835;28;20392;-66
2022/09/05 08:09:37;;;;;;;1999.90;999.90;;;23.00;99.90;;;;;;5031733;28;20395;-66
2022/09/05 08:12:10;;;;;;;1999.90;999.90;;;23.20;99.90;;;;;;5031647;28;20490;-66
2022/09/05 08:14:42;;;;;;;1999.90;999.90;;;23.30;99.90;;;;;;5031881;28;20419;-66
2022/09/05 08:17:21;;;;;;;1999.90;999.90;;;23.40;99.90;;;;;;5031304;28;20468;-66
2022/09/05 08:20:13;;;;;;;1999.90;999.90;;;23.60;99.90;;;;;;5031742;28;20368;-66
2022/09/05 08:22:57;;;;;;;1999.90;999.90;;;23.70;99.90;;;;;;5000887;28;20423;-66
2022/09/05 08:25:34;;;;;;;1999.90;999.90;;;23.90;99.90;;;;;;5031520;28;20952;-66
2022/09/05 08:27:59;;;;;;;1999.90;999.90;;;24.00;99.90;;;;;;5031371;28;20380;-66
2022/09/05 08:30:26;;;;;;;1999.90;999.90;;;24.00;99.90;;;;;;5031513;28;20886;-66
2022/09/05 08:33:19;;;;;;;1999.90;999.90;;;24.10;99.90;;;;;;5031418;28;20223;-66
2022/09/05 08:35:57;;;;;;;1999.90;999.90;;;24.40;99.90;;;;;;5032873;28;20457;-66
2022/09/05 08:38:24;;;;;;;1999.90;999.90;;;24.60;99.90;;;;;;5035178;28;20477;-66
2022/09/05 08:41:16;;;;;;;1999.90;999.90;;;24.80;99.90;;;;;;5035042;28;20448;-66
2022/09/05 08:44:12;;;;;;;1999.90;999.90;;;24.90;99.90;;;;;;5004378;28;20911;-66
2022/09/05 08:47:23;;;;;;;1999.90;999.90;;;25.00;99.90;;;;;;5034924;28;20411;-65
2022/09/05 08:50:04;;;;;;;1999.90;999.90;;;25.00;99.90;;;;;;5034471;28;20406;-66
2022/09/05 08:52:37;;;;;;;1999.90;999.90;;;25.00;99.90;;;;;;5034927;28;20503;-66
2022/09/05 08:55:24;;;;;;;1999.90;999.90;;;25.10;99.90;;;;;;5034900;28;20482;-66
2022/09/05 08:58:08;;;;;;;1999.90;999.90;;;25.30;99.90;;;;;;5034589;28;20378;-66
2022/09/05 09:00:54;;;;;;;1999.90;999.90;;;25.50;99.90;;;;;;5035016;28;20996;-66
2022/09/05 09:03:54;;;;;;;1999.90;999.90;;;25.60;99.90;;;;;;5035374;28;20373;-66
2022/09/05 09:06:31;;;;;;;1999.90;999.90;;;25.70;99.90;;;;;;5033039;28;20422;-66
2022/09/05 09:09:03;;;;;;;1999.90;999.90;;;25.90;99.30;;;;;;5036454;28;20819;-66
2022/09/05 09:11:28;;;;;;;1999.90;999.90;;;26.10;98.50;;;;;;5036442;28;20395;-66
2022/09/05 09:14:15;;;;;;;1999.90;999.90;;;26.10;97.50;;;;;;5037121;28;20462;-66
2022/09/05 09:17:06;;;;;;;1999.90;999.90;;;26.30;97.00;;;;;;5037213;28;20165;-65
2022/09/05 09:20:08;;;;;;;1999.90;999.90;;;26.40;95.90;;;;;;5037028;28;20413;-67
2022/09/05 09:22:52;;;;;;;1999.90;999.90;;;26.60;95.20;;;;;;5037525;28;20497;-66
2022/09/05 09:25:47;;;;;;;1999.90;999.90;;;26.70;93.70;;;;;;5037276;28;20775;-67
2022/09/05 09:28:39;;;;;;;1999.90;999.90;;;26.80;91.90;;;;;;5038143;28;20418;-66
2022/09/05 09:31:49;;;;;;;1999.90;999.90;;;27.00;90.50;;;;;;5036163;28;20434;-66
2022/09/05 09:34:31;;;;;;;1999.90;999.90;;;27.20;88.00;;;;;;5027265;28;20800;-66
2022/09/05 09:37:24;;;;;;;1999.90;999.90;;;27.30;82.10;;;;;;5036690;28;20973;-66
2022/09/05 09:39:53;;;;;;;1999.90;999.90;;;27.50;75.20;;;;;;5035435;28;20774;-67
2022/09/05 09:42:46;;;;;;;1999.90;999.90;;;27.70;71.80;;;;;;5039873;28;20395;-67
2022/09/05 09:45:29;;;;;;;1999.90;999.90;;;27.80;65.20;;;;;;5039254;28;20484;-66
2022/09/05 09:48:08;;;;;;;1999.90;999.90;;;27.90;61.80;;;;;;5036228;28;20909;-66
2022/09/05 09:51:11;;;;;;;1999.90;999.90;;;27.90;58.60;;;;;;5033905;28;21000;-66
2022/09/05 09:54:15;;;;;;;1999.90;999.90;;;27.90;56.60;;;;;;5034115;28;20447;-66
2022/09/05 09:57:02;;;;;;;1999.90;999.90;;;28.10;51.20;;;;;;5033872;28;20903;-66
2022/09/05 09:59:39;;;;;;;1999.90;999.90;;;28.30;51.00;;;;;;5034101;28;20406;-66
2022/09/05 10:02:49;;;;;;;1999.90;999.90;;;28.30;50.40;;;;;;5033588;28;20403;-66
2022/09/05 10:05:36;;;;;;;1999.90;999.90;;;28.40;50.00;;;;;;4972540;28;20458;-66
2022/09/05 10:08:19;;;;;;;1999.90;999.90;;;28.60;48.80;;;;;;5029380;28;20410;-66
2022/09/05 10:11:07;;;;;;;1999.90;999.90;;;28.80;46.40;;;;;;5034019;28;20498;-67
2022/09/05 10:13:53;;;;;;;1999.90;999.90;;;29.00;43.90;;;;;;5038595;28;20864;-66
2022/09/05 10:16:25;;;;;;;1999.90;999.90;;;29.10;41.90;;;;;;5033136;28;20411;-66
2022/09/05 10:19:09;;;;;;;1999.90;999.90;;;29.30;40.60;;;;;;5033467;28;20767;-66
2022/09/05 10:21:49;;;;;;;1999.90;999.90;;;29.40;37.00;;;;;;5033638;28;20402;-66
2022/09/05 10:24:45;;;;;;;1999.90;999.90;;;29.50;32.90;;;;;;5033262;28;20997;-66
2022/09/05 10:27:34;;;;;;;1999.90;999.90;;;29.50;31.40;;;;;;5033004;28;20430;-66
2022/09/05 10:30:07;;;;;;;1999.90;999.90;;;29.70;31.80;;;;;;5023815;28;20420;-66
2022/09/05 10:32:41;;;;;;;1999.90;999.90;;;29.70;30.50;;;;;;5033495;28;20453;-66
2022/09/05 10:35:32;;;;;;;1999.90;999.90;;;29.80;30.70;;;;;;5036586;28;20446;-66
2022/09/05 10:38:03;;;;;;;1999.90;999.90;;;30.10;29.20;;;;;;5037839;28;20487;-67
2022/09/05 10:40:33;;;;;;;1999.90;999.90;;;30.20;29.00;;;;;;5038065;28;20407;-67
2022/09/05 10:43:21;;;;;;;1999.90;999.90;;;30.30;28.70;;;;;;5039049;28;20434;-66
2022/09/05 10:45:59;;;;;;;1999.90;999.90;;;30.60;28.60;;;;;;5038398;28;20458;-66
2022/09/05 10:48:57;;;;;;;1999.90;999.90;;;30.90;28.00;;;;;;5038145;28;20482;-67
2022/09/05 10:51:55;;;;;;;1999.90;999.90;;;31.00;24.80;;;;;;5037480;28;20399;-66
2022/09/05 10:54:25;;;;;;;1999.90;999.90;;;31.00;23.90;;;;;;5037028;28;20445;-66
2022/09/05 10:57:12;;;;;;;1999.90;999.90;;;30.90;24.30;;;;;;5037259;28;20472;-65
2022/09/05 10:59:37;;;;;;;1999.90;999.90;;;31.10;24.40;;;;;;5037929;28;20480;-66
2022/09/05 11:02:07;;;;;;;1999.90;999.90;;;31.40;23.80;;;;;;5039213;28;20403;-66
2022/09/05 11:04:58;;;;;;;1999.90;999.90;;;31.60;22.30;;;;;;5039033;28;20185;-65
2022/09/05 11:08:04;;;;;;;1999.90;999.90;;;31.60;21.70;;;;;;5039060;28;20755;-67
2022/09/05 11:10:30;;;;;;;1999.90;999.90;;;31.60;20.80;;;;;;5039514;28;20395;-66
2022/09/05 11:13:17;;;;;;;1999.90;999.90;;;31.60;21.90;;;;;;5039331;28;20537;-66
2022/09/05 11:16:00;;;;;;;1999.90;999.90;;;31.80;21.70;;;;;;5038695;28;20419;-66
2022/09/05 11:19:03;;;;;;;1999.90;999.90;;;32.00;20.90;;;;;;5032580;28;20399;-66
2022/09/05 11:22:08;;;;;;;1999.90;999.90;;;32.20;21.10;;;;;;5032096;28;20410;-66
2022/09/05 11:24:59;;;;;;;1999.90;999.90;;;32.50;19.90;;;;;;5031991;28;20485;-66
2022/09/05 11:27:38;;;;;;;1999.90;999.90;;;32.60;19.60;;;;;;5031929;28;20407;-66
2022/09/05 11:30:12;;;;;;;1999.90;999.90;;;32.70;18.20;;;;;;5032156;28;20914;-66
2022/09/05 11:33:06;;;;;;;1999.90;999.90;;;32.60;17.60;;;;;;5032057;28;20546;-66
2022/09/05 11:35:41;;;;;;;1999.90;999.90;;;32.40;18.00;;;;;;5031757;28;20434;-66
2022/09/05 11:38:10;;;;;;;1999.90;999.90;;;32.10;17.50;;;;;;5031712;28;20397;-66
2022/09/05 11:41:10;;;;;;;1999.90;999.90;;;31.80;16.70;;;;;;5032257;28;20810;-66
2022/09/05 11:44:00;;;;;;;1999.90;999.90;;;31.70;16.50;;;;;;5032298;28;20399;-66
2022/09/05 11:46:46;;;;;;;1999.90;999.90;;;31.60;17.30;;;;;;5031459;28;20407;-67
2022/09/05 11:49:21;;;;;;;1999.90;999.90;;;32.10;15.50;;;;;;5032035;28;20913;-65
2022/09/05 11:52:06;;;;;;;1999.90;999.90;;;32.70;14.90;;;;;;5031869;28;20411;-67
2022/09/05 11:54:34;;;;;;;1999.90;999.90;;;33.00;13.90;;;;;;5032506;28;20422;-66
2022/09/05 11:57:03;;;;;;;1999.90;999.90;;;33.50;13.50;;;;;;5036703;28;20407;-66
2022/09/05 12:00:06;;;;;;;1999.90;999.90;;;34.40;11.20;;;;;;5035597;28;20427;-66
2022/09/05 12:02:59;;;;;;;1999.90;999.90;;;34.50;10.90;;;;;;5032060;28;20419;-67
2022/09/05 12:05:51;;;;;;;1999.90;999.90;;;35.20;9.10;;;;;;5031978;28;20419;-67
2022/09/05 12:08:38;;;;;;;1999.90;999.90;;;35.30;9.20;;;;;;5031917;28;20406;-67
2022/09/05 12:11:09;;;;;;;1999.90;999.90;;;36.20;9.30;;;;;;5035881;28;20427;-67
2022/09/05 12:13:53;;;;;;;1999.90;999.90;;;37.20;8.30;;;;;;5035624;28;20478;-66
2022/09/05 12:17:09;;;;;;;1999.90;999.90;;;37.80;7.00;;;;;;5035425;28;20399;-66
2022/09/05 12:19:46;;;;;;;1999.90;999.90;;;38.10;5.90;;;;;;5002084;28;20419;-66
2022/09/05 12:22:20;;;;;;;1999.90;999.90;;;38.70;7.20;;;;;;5035471;28;20920;-63
2022/09/05 12:25:07;;;;;;;1999.90;999.90;;;39.30;5.60;;;;;;5037704;28;20482;-64
2022/09/05 12:27:38;;;;;;;1999.90;999.90;;;39.80;4.70;;;;;;5040734;28;20399;-64
2022/09/05 12:30:30;;;;;;;1999.90;999.90;;;40.30;4.60;;;;;;5039871;28;20395;-65
2022/09/05 12:33:24;;;;;;;1999.90;999.90;;;41.10;3.30;;;;;;5022685;28;20455;-65
2022/09/05 12:35:58;;;;;;;1999.90;999.90;;;41.70;2.70;;;;;;5025602;28;20462;-65
2022/09/05 12:38:37;;;;;;;1999.90;999.90;;;42.30;1.30;;;;;;5039720;28;20430;-64
2022/09/05 12:41:13;;;;;;;1999.90;999.90;;;42.40;1.00;;;;;;5039878;28;20403;-65
2022/09/05 12:43:44;;;;;;;1999.90;999.90;;;42.60;1.00;;;;;;5039127;28;20410;-64
2022/09/05 12:46:25;;;;;;;1999.90;999.90;;;42.50;1.00;;;;;;5034876;28;20477;-64
2022/09/05 12:49:07;;;;;;;1999.90;999.90;;;42.50;1.00;;;;;;5033205;28;20418;-64
2022/09/05 12:51:40;;;;;;;1999.90;999.90;;;43.00;1.00;;;;;;5034322;28;20465;-65
2022/09/05 12:54:26;;;;;;;1999.90;999.90;;;42.40;1.00;;;;;;5032018;28;20419;-67
2022/09/05 12:56:59;;;;;;;1999.90;999.90;;;41.30;1.00;;;;;;5033865;28;21026;-65
2022/09/05 12:59:28;;;;;;;1999.90;999.90;;;41.40;1.00;;;;;;5034227;28;20803;-64
2022/09/05 13:02:06;;;;;;;1999.90;999.90;;;41.90;1.00;;;;;;5033670;28;20414;-64
2022/09/05 13:04:44;;;;;;;1999.90;999.90;;;42.00;1.00;;;;;;5034087;28;20839;-64
2022/09/05 13:07:21;;;;;;;1999.90;999.90;;;42.40;1.00;;;;;;5033841;28;21052;-65
2022/09/05 13:09:58;;;;;;;1999.90;999.90;;;42.70;1.00;;;;;;5033617;28;20911;-64
2022/09/05 13:12:30;;;;;;;1999.90;999.90;;;42.00;1.00;;;;;;5033988;28;20454;-65
2022/09/05 13:15:23;;;;;;;1999.90;999.90;;;41.60;1.00;;;;;;5033784;28;20431;-65
2022/09/05 13:18:08;;;;;;;1999.90;999.90;;;41.40;1.00;;;;;;5015338;28;20911;-65